Time;durP1;ratioP1;P1;durP2;ratioP2;P2;SDS_P1;SDS_P2;PMS_P1;PMS_P2;Temp;Humidity;BMP_temperature;BMP_pressure;BME280_temperature;BME280_humidity;BME280_pressure;Samples;Min_cycle;Max_cycle;Signal;HPM_P1;HPM_P2
2023/11/21 00:02:13;;;;;;;6.45;1.02;;;9.80;81.70;;;;;;5006616;28;20502;-63
2023/11/21 00:04:39;;;;;;;1.95;0.70;;;9.80;81.80;;;;;;4988489;28;20176;-63
2023/11/21 00:07:05;;;;;;;4.90;1.23;;;9.80;81.90;;;;;;5006145;28;20083;-62
2023/11/21 00:09:31;;;;;;;5.03;0.95;;;9.80;82.00;;;;;;5005527;28;20063;-62
2023/11/21 00:11:59;;;;;;;4.15;1.05;;;9.80;81.90;;;;;;5004154;28;20391;-63
2023/11/21 00:14:24;;;;;;;4.25;0.80;;;9.70;82.00;;;;;;5005064;28;20513;-62
2023/11/21 00:16:50;;;;;;;9.45;1.48;;;9.70;82.00;;;;;;5005215;28;20049;-63
2023/11/21 00:19:16;;;;;;;4.40;0.80;;;9.70;82.20;;;;;;5005535;28;20418;-64
2023/11/21 00:21:44;;;;;;;4.15;0.85;;;9.70;82.40;;;;;;4988216;28;20525;-62
2023/11/21 00:24:10;;;;;;;4.00;1.05;;;9.70;82.60;;;;;;5005254;28;20080;-63
2023/11/21 00:26:37;;;;;;;3.42;0.63;;;9.70;82.70;;;;;;5004058;28;20034;-63
2023/11/21 00:29:03;;;;;;;4.50;1.02;;;9.70;82.70;;;;;;5005655;28;20061;-62
2023/11/21 00:31:30;;;;;;;4.72;1.30;;;9.70;82.90;;;;;;5004977;28;20038;-63
2023/11/21 00:33:56;;;;;;;2.10;0.88;;;9.70;82.90;;;;;;4996875;28;20038;-63
2023/11/21 00:36:22;;;;;;;6.05;0.80;;;9.70;83.00;;;;;;5003890;28;20061;-63
2023/11/21 00:38:48;;;;;;;6.78;1.13;;;9.70;83.10;;;;;;5004430;28;20065;-63
2023/11/21 00:41:14;;;;;;;4.57;0.82;;;9.70;84.00;;;;;;5005394;28;20042;-63
2023/11/21 00:43:39;;;;;;;2.83;0.88;;;9.70;83.10;;;;;;5004773;28;20061;-63
2023/11/21 00:46:09;;;;;;;4.93;0.80;;;9.70;83.20;;;;;;5005937;28;20045;-61
2023/11/21 00:48:34;;;;;;;5.07;0.88;;;9.70;83.10;;;;;;5007989;28;20042;-63
2023/11/21 00:51:00;;;;;;;2.88;0.90;;;9.70;83.20;;;;;;5009741;28;20513;-63
2023/11/21 00:53:26;;;;;;;4.55;1.00;;;9.70;83.20;;;;;;5008985;28;20077;-63
2023/11/21 00:55:57;;;;;;;4.95;0.82;;;9.70;83.10;;;;;;5009213;28;20509;-63
2023/11/21 00:58:24;;;;;;;4.53;0.93;;;9.70;83.30;;;;;;5009134;28;20038;-63
2023/11/21 01:00:50;;;;;;;3.63;0.80;;;9.60;83.30;;;;;;5008907;28;20048;-63
2023/11/21 01:03:15;;;;;;;4.57;1.30;;;9.60;83.20;;;;;;5009313;28;20033;-62
2023/11/21 01:05:41;;;;;;;5.38;0.90;;;9.60;83.20;;;;;;5008200;28;20049;-62
2023/11/21 01:08:06;;;;;;;3.72;0.68;;;9.60;83.40;;;;;;5008969;28;20394;-63
2023/11/21 01:10:34;;;;;;;4.88;0.90;;;9.50;83.40;;;;;;5007861;28;20067;-63
2023/11/21 01:12:59;;;;;;;4.90;1.08;;;9.50;83.50;;;;;;5009063;28;20532;-61
2023/11/21 01:15:25;;;;;;;3.30;0.82;;;9.50;83.50;;;;;;5008398;28;20324;-63
2023/11/21 01:17:52;;;;;;;3.83;0.80;;;9.50;83.60;;;;;;5008407;28;20038;-63
2023/11/21 01:20:17;;;;;;;4.68;0.88;;;9.60;83.70;;;;;;5008431;28;20489;-63
2023/11/21 01:22:43;;;;;;;2.58;0.80;;;9.50;83.60;;;;;;5008156;28;20030;-63
2023/11/21 01:25:10;;;;;;;2.40;0.80;;;9.60;83.80;;;;;;5008480;28;20026;-63
2023/11/21 01:27:39;;;;;;;3.13;0.90;;;9.50;83.90;;;;;;5008250;28;20022;-65
2023/11/21 01:30:07;;;;;;;4.68;0.80;;;9.50;84.00;;;;;;5009077;28;20532;-63
2023/11/21 01:32:33;;;;;;;4.53;0.93;;;9.60;84.00;;;;;;5007616;28;20040;-62
2023/11/21 01:34:59;;;;;;;7.93;0.90;;;9.50;84.00;;;;;;5008539;28;20468;-62
2023/11/21 01:37:27;;;;;;;3.30;0.73;;;9.60;84.10;;;;;;5006750;28;20129;-63
2023/11/21 01:39:54;;;;;;;4.15;0.90;;;9.60;84.10;;;;;;5008609;28;20034;-63
2023/11/21 01:42:20;;;;;;;5.47;0.82;;;9.60;84.10;;;;;;5008411;28;20065;-62
2023/11/21 01:44:46;;;;;;;3.75;0.70;;;9.60;84.20;;;;;;5007139;28;20038;-63
2023/11/21 01:47:13;;;;;;;5.35;0.70;;;9.60;84.30;;;;;;5008230;28;20448;-63
2023/11/21 01:49:39;;;;;;;4.65;0.88;;;9.60;84.30;;;;;;5008152;28;20049;-62
2023/11/21 01:52:05;;;;;;;2.75;0.70;;;9.60;84.40;;;;;;5008261;28;20816;-62
2023/11/21 01:54:31;;;;;;;2.60;0.70;;;9.60;84.50;;;;;;5007221;28;20060;-63
2023/11/21 01:57:03;;;;;;;3.58;0.95;;;9.60;84.60;;;;;;5008112;28;20060;-63
2023/11/21 01:59:39;;;;;;;2.28;0.60;;;9.60;84.80;;;;;;5007584;28;20428;-63
2023/11/21 02:02:06;;;;;;;2.80;0.60;;;9.60;84.90;;;;;;5007761;28;20052;-63
2023/11/21 02:04:39;;;;;;;3.75;0.70;;;9.50;84.80;;;;;;5007110;28;20409;-63
2023/11/21 02:07:08;;;;;;;5.10;0.80;;;9.50;85.10;;;;;;5007657;28;20041;-62
2023/11/21 02:09:34;;;;;;;3.28;0.75;;;9.50;85.00;;;;;;5007801;28;20038;-63
2023/11/21 02:12:00;;;;;;;3.65;0.57;;;9.50;85.30;;;;;;5006333;28;20496;-63
2023/11/21 02:14:29;;;;;;;4.00;0.55;;;9.50;85.30;;;;;;5007073;28;20029;-62
2023/11/21 02:16:57;;;;;;;3.10;0.70;;;9.40;85.50;;;;;;5006109;28;20034;-62
2023/11/21 02:19:25;;;;;;;4.43;0.70;;;9.50;85.50;;;;;;5007971;28;20318;-63
2023/11/21 02:21:52;;;;;;;2.03;0.45;;;9.50;85.50;;;;;;4989924;28;20061;-63
2023/11/21 02:24:21;;;;;;;4.00;0.80;;;9.40;85.50;;;;;;5007965;28;20030;-63
2023/11/21 02:26:51;;;;;;;1.90;0.63;;;9.40;85.70;;;;;;5007011;28;20038;-65
2023/11/21 02:29:18;;;;;;;3.13;0.68;;;9.40;85.70;;;;;;5007634;28;20125;-63
2023/11/21 02:31:50;;;;;;;1.65;0.35;;;9.40;85.70;;;;;;5006834;28;20128;-63
2023/11/21 02:34:17;;;;;;;2.30;0.57;;;9.40;85.60;;;;;;5007278;28;20105;-63
2023/11/21 02:36:49;;;;;;;3.65;0.73;;;9.40;85.70;;;;;;5005227;28;20038;-63
2023/11/21 02:39:16;;;;;;;3.05;0.70;;;9.40;85.80;;;;;;5007136;28;20037;-63
2023/11/21 02:41:42;;;;;;;2.00;0.50;;;9.40;85.60;;;;;;5007106;28;20666;-63
2023/11/21 02:44:08;;;;;;;3.95;0.68;;;9.40;85.60;;;;;;5007203;28;20061;-63
2023/11/21 02:46:37;;;;;;;1.75;0.52;;;9.30;85.80;;;;;;5006317;28;20172;-63
2023/11/21 02:49:03;;;;;;;3.80;1.17;;;9.30;85.90;;;;;;5007362;28;20034;-63
2023/11/21 02:51:30;;;;;;;2.47;0.70;;;9.30;85.80;;;;;;5006986;28;20041;-62
2023/11/21 02:54:00;;;;;;;3.58;0.60;;;9.30;85.80;;;;;;5006755;28;20026;-63
2023/11/21 02:56:26;;;;;;;2.20;0.60;;;9.30;85.90;;;;;;5006814;28;20042;-63
2023/11/21 02:58:52;;;;;;;1.80;0.47;;;9.30;86.00;;;;;;5006096;28;20438;-63
2023/11/21 03:01:17;;;;;;;4.50;0.60;;;9.30;86.00;;;;;;5006986;28;20037;-62
2023/11/21 03:03:43;;;;;;;2.97;0.88;;;9.30;86.10;;;;;;5006882;28;20049;-63
2023/11/21 03:06:08;;;;;;;2.50;0.88;;;9.30;86.00;;;;;;5007096;28;20091;-65
2023/11/21 03:08:34;;;;;;;2.47;0.63;;;9.30;86.00;;;;;;5005189;28;20559;-65
2023/11/21 03:11:00;;;;;;;3.08;0.65;;;9.30;86.10;;;;;;5005296;28;20073;-65
2023/11/21 03:13:26;;;;;;;3.88;0.70;;;9.20;86.10;;;;;;5006328;28;20112;-65
2023/11/21 03:15:51;;;;;;;1.88;0.50;;;9.20;86.40;;;;;;5006918;28;20065;-65
2023/11/21 03:18:17;;;;;;;3.33;0.57;;;9.30;86.60;;;;;;5006072;28;20304;-65
2023/11/21 03:20:46;;;;;;;4.93;0.70;;;9.20;86.60;;;;;;5006428;28;20549;-65
2023/11/21 03:23:11;;;;;;;3.50;0.40;;;9.20;86.60;;;;;;5007389;28;20547;-65
2023/11/21 03:25:37;;;;;;;2.60;0.52;;;9.00;86.60;;;;;;5006477;28;20133;-62
2023/11/21 03:28:03;;;;;;;2.13;0.50;;;9.20;86.60;;;;;;5006821;28;20038;-65
2023/11/21 03:30:28;;;;;;;3.03;0.50;;;9.20;86.70;;;;;;5005748;28;20026;-65
2023/11/21 03:32:54;;;;;;;1.67;0.43;;;9.20;86.70;;;;;;5007206;28;20045;-65
2023/11/21 03:35:21;;;;;;;2.13;0.47;;;9.20;86.70;;;;;;5006506;28;20062;-64
2023/11/21 03:37:46;;;;;;;2.20;0.57;;;9.20;86.70;;;;;;5004690;28;20072;-64
2023/11/21 03:40:12;;;;;;;2.63;0.60;;;9.20;86.60;;;;;;5006387;28;20767;-64
2023/11/21 03:42:39;;;;;;;1.88;0.55;;;9.20;86.70;;;;;;5004958;28;20506;-64
2023/11/21 03:45:06;;;;;;;2.10;0.50;;;9.20;86.70;;;;;;5006151;28;20445;-65
2023/11/21 03:47:31;;;;;;;1.52;0.40;;;9.20;86.70;;;;;;5006057;28;20038;-64
2023/11/21 03:49:57;;;;;;;3.72;0.45;;;9.20;86.70;;;;;;5005343;28;20037;-64
2023/11/21 03:52:23;;;;;;;3.33;0.70;;;9.20;86.70;;;;;;5006301;28;20048;-64
2023/11/21 03:54:49;;;;;;;3.03;0.50;;;9.20;86.70;;;;;;5005604;28;20041;-64
2023/11/21 03:57:14;;;;;;;1.40;0.60;;;9.30;86.80;;;;;;5006127;28;20026;-64
2023/11/21 03:59:41;;;;;;;1.05;0.50;;;9.30;87.60;;;;;;4987966;28;20080;-64
2023/11/21 04:02:07;;;;;;;5.97;0.65;;;9.30;86.70;;;;;;5006511;28;20553;-64
2023/11/21 04:04:33;;;;;;;3.70;0.60;;;9.30;86.70;;;;;;5005992;28;20044;-65
2023/11/21 04:06:59;;;;;;;2.65;0.60;;;9.30;86.70;;;;;;5006415;28;20042;-65
2023/11/21 04:09:25;;;;;;;3.40;0.70;;;9.30;86.80;;;;;;5005769;28;20092;-64
2023/11/21 04:11:51;;;;;;;3.60;0.77;;;9.30;86.90;;;;;;5006595;28;20505;-64
2023/11/21 04:14:17;;;;;;;2.63;0.70;;;9.30;86.80;;;;;;5006685;28;20034;-64
2023/11/21 04:16:43;;;;;;;0.95;0.40;;;9.30;86.70;;;;;;5005534;28;20036;-64
2023/11/21 04:19:14;;;;;;;3.08;0.60;;;9.30;86.70;;;;;;5006376;28;20057;-65
2023/11/21 04:21:40;;;;;;;2.70;0.65;;;9.30;86.80;;;;;;5005832;28;20037;-63
2023/11/21 04:24:06;;;;;;;2.40;0.50;;;9.40;86.90;;;;;;5006604;28;20034;-64
2023/11/21 04:26:32;;;;;;;2.05;0.52;;;9.30;86.80;;;;;;5005726;28;20133;-64
2023/11/21 04:28:57;;;;;;;1.83;0.50;;;9.30;86.70;;;;;;5004308;28;20121;-65
2023/11/21 04:31:23;;;;;;;4.30;0.70;;;9.40;86.60;;;;;;5006414;28;20042;-64
2023/11/21 04:33:49;;;;;;;2.22;0.40;;;9.40;87.50;;;;;;5005979;28;20489;-65
2023/11/21 04:36:14;;;;;;;1.10;0.45;;;9.40;86.80;;;;;;5005776;28;20057;-65
2023/11/21 04:38:40;;;;;;;0.80;0.43;;;9.30;86.70;;;;;;5003664;28;20170;-64
2023/11/21 04:41:06;;;;;;;3.55;0.68;;;9.30;86.70;;;;;;4988508;28;20520;-64
2023/11/21 04:43:32;;;;;;;0.85;0.40;;;9.30;86.80;;;;;;5006040;28;20038;-64
2023/11/21 04:45:57;;;;;;;1.73;0.50;;;9.30;86.70;;;;;;5006112;28;20045;-64
2023/11/21 04:48:23;;;;;;;2.30;0.50;;;9.30;86.70;;;;;;5005663;28;20084;-64
2023/11/21 04:50:49;;;;;;;2.20;0.50;;;9.30;86.70;;;;;;4985823;28;20041;-64
2023/11/21 04:53:14;;;;;;;2.63;0.68;;;9.30;86.70;;;;;;4986229;28;20038;-64
2023/11/21 04:55:43;;;;;;;3.05;0.60;;;9.30;86.70;;;;;;4986660;28;20038;-65
2023/11/21 04:58:11;;;;;;;1.60;0.70;;;9.20;87.00;;;;;;4986233;28;20457;-64
2023/11/21 05:00:36;;;;;;;1.33;0.40;;;9.20;86.90;;;;;;4985594;28;20066;-65
2023/11/21 05:03:03;;;;;;;1.90;0.60;;;9.20;87.00;;;;;;4968855;28;20054;-64
2023/11/21 05:05:29;;;;;;;1.42;0.55;;;9.20;87.00;;;;;;4966991;28;20046;-64
2023/11/21 05:07:55;;;;;;;1.08;0.40;;;9.20;87.00;;;;;;4985366;28;20037;-64
2023/11/21 05:10:22;;;;;;;1.63;0.40;;;9.20;87.00;;;;;;4986095;28;20068;-64
2023/11/21 05:12:49;;;;;;;1.35;0.50;;;9.20;87.10;;;;;;4983959;28;20501;-65
2023/11/21 05:15:17;;;;;;;1.25;0.47;;;9.20;87.00;;;;;;4985541;28;20230;-64
2023/11/21 05:17:43;;;;;;;1.42;0.40;;;9.20;87.00;;;;;;4984682;28;20125;-65
2023/11/21 05:20:11;;;;;;;0.68;0.40;;;9.20;87.10;;;;;;4999277;28;20033;-64
2023/11/21 05:22:37;;;;;;;1.58;0.35;;;9.20;87.10;;;;;;5004463;28;20033;-65
2023/11/21 05:25:03;;;;;;;2.50;0.50;;;9.30;87.90;;;;;;5004301;28;20311;-64
2023/11/21 05:27:33;;;;;;;2.13;0.30;;;9.20;87.00;;;;;;5004083;28;20536;-65
2023/11/21 05:29:59;;;;;;;2.15;0.55;;;9.20;87.00;;;;;;5005048;28;20078;-64
2023/11/21 05:32:25;;;;;;;1.20;0.55;;;9.20;86.90;;;;;;5004468;28;20088;-64
2023/11/21 05:34:51;;;;;;;2.45;0.55;;;9.20;87.00;;;;;;5009087;28;20129;-65
2023/11/21 05:37:17;;;;;;;2.15;0.60;;;9.20;87.00;;;;;;5008075;28;20286;-65
2023/11/21 05:39:43;;;;;;;2.72;0.47;;;9.20;87.00;;;;;;4999340;28;20034;-64
2023/11/21 05:42:10;;;;;;;2.63;0.57;;;9.20;87.00;;;;;;5008959;28;20497;-65
2023/11/21 05:44:36;;;;;;;2.70;0.43;;;9.20;87.10;;;;;;5008354;28;20045;-64
2023/11/21 05:47:03;;;;;;;2.40;0.70;;;9.20;87.10;;;;;;5009111;28;20112;-65
2023/11/21 05:49:29;;;;;;;1.98;0.50;;;9.20;87.10;;;;;;4991218;28;20037;-64
2023/11/21 05:51:55;;;;;;;1.90;0.38;;;9.10;87.20;;;;;;4991432;28;20044;-62
2023/11/21 05:54:21;;;;;;;2.15;0.50;;;9.10;87.30;;;;;;5008598;28;20041;-65
2023/11/21 05:56:47;;;;;;;1.20;0.50;;;9.20;87.30;;;;;;5008614;28;20041;-65
2023/11/21 05:59:13;;;;;;;1.42;0.55;;;9.10;87.40;;;;;;5008510;28;20049;-65
2023/11/21 06:01:39;;;;;;;1.50;0.70;;;9.20;87.40;;;;;;5008589;28;20394;-64
2023/11/21 06:04:05;;;;;;;1.92;0.60;;;9.20;87.50;;;;;;5009103;28;20395;-64
2023/11/21 06:06:31;;;;;;;1.48;0.63;;;9.20;87.60;;;;;;5007728;28;20038;-65
2023/11/21 06:08:57;;;;;;;1.48;0.50;;;9.20;87.60;;;;;;5008616;28;20092;-64
2023/11/21 06:11:22;;;;;;;2.63;0.50;;;9.20;87.50;;;;;;5008269;28;20568;-65
2023/11/21 06:13:49;;;;;;;1.80;0.57;;;9.20;87.50;;;;;;5008803;28;20421;-64
2023/11/21 06:16:17;;;;;;;2.22;0.60;;;9.30;87.50;;;;;;5008502;28;20041;-65
2023/11/21 06:18:43;;;;;;;4.63;0.85;;;9.30;87.50;;;;;;5007454;28;20042;-65
2023/11/21 06:21:12;;;;;;;2.25;0.98;;;9.30;87.30;;;;;;5008840;28;20516;-64
2023/11/21 06:23:38;;;;;;;3.55;1.30;;;9.30;87.40;;;;;;5008544;28;20034;-65
2023/11/21 06:26:04;;;;;;;2.38;1.25;;;9.30;87.30;;;;;;5008703;28;20045;-64
2023/11/21 06:28:30;;;;;;;3.78;2.60;;;9.30;87.20;;;;;;5007281;28;20026;-65
2023/11/21 06:30:58;;;;;;;6.43;4.18;;;9.30;87.20;;;;;;5008396;28;20113;-65
2023/11/21 06:33:26;;;;;;;2.90;2.40;;;9.30;87.20;;;;;;5007886;28;20045;-64
2023/11/21 06:35:52;;;;;;;2.00;1.52;;;9.30;87.10;;;;;;5008166;28;20034;-65
2023/11/21 06:38:17;;;;;;;1.70;1.00;;;9.30;87.10;;;;;;5007000;28;20068;-64
2023/11/21 06:40:44;;;;;;;1.65;0.73;;;9.30;87.10;;;;;;5007386;28;20042;-64
2023/11/21 06:43:10;;;;;;;3.88;0.45;;;9.30;87.20;;;;;;4990401;28;20164;-64
2023/11/21 06:45:35;;;;;;;1.05;0.50;;;9.20;87.10;;;;;;5006764;28;20390;-64
2023/11/21 06:48:01;;;;;;;3.20;0.82;;;9.20;87.10;;;;;;5008041;28;20030;-65
2023/11/21 06:50:26;;;;;;;3.40;0.60;;;9.20;87.00;;;;;;5006615;28;20074;-64
2023/11/21 06:52:52;;;;;;;1.10;0.90;;;9.20;87.10;;;;;;5008097;28;20033;-64
2023/11/21 06:55:17;;;;;;;2.85;1.25;;;9.10;87.10;;;;;;5007742;28;20194;-64
2023/11/21 06:57:44;;;;;;;5.85;1.05;;;9.10;87.20;;;;;;5007148;28;20037;-64
2023/11/21 07:00:11;;;;;;;3.70;0.60;;;9.10;87.30;;;;;;5007750;28;20157;-64
2023/11/21 07:02:37;;;;;;;2.63;0.80;;;9.10;87.30;;;;;;5005537;28;20034;-64
2023/11/21 07:05:02;;;;;;;1.80;0.75;;;9.10;87.30;;;;;;5007696;28;20405;-64
2023/11/21 07:07:28;;;;;;;2.15;0.70;;;9.10;87.30;;;;;;5007089;28;20099;-64
2023/11/21 07:09:55;;;;;;;1.58;0.60;;;9.10;87.30;;;;;;5007348;28;20132;-63
2023/11/21 07:12:23;;;;;;;2.05;0.60;;;9.10;87.40;;;;;;5006345;28;20628;-64
2023/11/21 07:14:49;;;;;;;3.58;0.70;;;9.10;87.40;;;;;;4989214;28;20053;-64
2023/11/21 07:17:16;;;;;;;0.77;0.50;;;9.10;87.40;;;;;;5007519;28;20037;-64
2023/11/21 07:19:41;;;;;;;1.35;0.50;;;9.10;87.40;;;;;;5007319;28;20036;-64
2023/11/21 07:22:08;;;;;;;2.95;0.90;;;9.10;87.60;;;;;;5007705;28;20406;-64
2023/11/21 07:24:34;;;;;;;4.40;1.45;;;9.10;87.60;;;;;;5006376;28;20533;-64
2023/11/21 07:27:00;;;;;;;2.22;0.98;;;9.10;87.70;;;;;;5006765;28;20045;-64
2023/11/21 07:29:26;;;;;;;2.50;0.90;;;9.10;87.80;;;;;;5007109;28;20037;-64
2023/11/21 07:31:53;;;;;;;2.13;0.90;;;9.20;87.80;;;;;;5007605;28;20037;-64
2023/11/21 07:34:20;;;;;;;2.42;0.90;;;9.20;87.80;;;;;;5007036;28;20590;-64
2023/11/21 07:36:46;;;;;;;1.88;0.70;;;9.20;87.90;;;;;;5005351;28;20212;-64
2023/11/21 07:39:11;;;;;;;1.45;0.70;;;9.20;87.80;;;;;;5006518;28;20113;-64
2023/11/21 07:41:39;;;;;;;1.42;0.77;;;9.20;87.80;;;;;;5007032;28;20065;-64
2023/11/21 07:44:05;;;;;;;6.13;0.70;;;9.20;87.80;;;;;;5007014;28;20048;-65
2023/11/21 07:46:30;;;;;;;1.52;0.80;;;9.40;88.00;;;;;;5006001;28;20030;-64
2023/11/21 07:48:56;;;;;;;1.92;0.77;;;9.20;88.60;;;;;;5006810;28;20662;-64
2023/11/21 07:51:22;;;;;;;2.03;0.75;;;9.20;88.00;;;;;;5006458;28;20408;-64
2023/11/21 07:53:47;;;;;;;2.03;0.80;;;9.20;87.90;;;;;;5007318;28;20675;-64
2023/11/21 07:56:13;;;;;;;5.57;1.45;;;9.20;87.90;;;;;;5006481;28;20053;-64
2023/11/21 07:58:38;;;;;;;2.70;1.60;;;9.30;87.80;;;;;;5005678;28;20038;-64
2023/11/21 08:01:04;;;;;;;2.10;1.20;;;9.30;87.80;;;;;;5007071;28;20038;-64
2023/11/21 08:03:30;;;;;;;2.13;0.90;;;9.30;87.80;;;;;;5006386;28;20116;-64
2023/11/21 08:05:57;;;;;;;2.95;0.70;;;9.30;87.80;;;;;;5006738;28;20076;-64
2023/11/21 08:08:23;;;;;;;2.75;0.82;;;9.30;87.90;;;;;;5005985;28;20037;-65
2023/11/21 08:10:55;;;;;;;3.08;0.93;;;9.30;87.90;;;;;;4985809;28;20038;-64
2023/11/21 08:13:30;;;;;;;2.10;0.70;;;9.30;87.90;;;;;;5006364;28;20033;-64
2023/11/21 08:16:03;;;;;;;4.55;0.90;;;9.30;88.00;;;;;;5006451;28;20042;-64
2023/11/21 08:18:29;;;;;;;3.88;1.52;;;9.30;88.00;;;;;;5005467;28;20042;-64
2023/11/21 08:20:55;;;;;;;3.40;1.40;;;9.40;88.00;;;;;;5006550;28;20073;-64
2023/11/21 08:23:25;;;;;;;5.70;1.70;;;9.30;88.00;;;;;;5006231;28;20037;-64
2023/11/21 08:25:50;;;;;;;5.75;1.98;;;9.40;87.90;;;;;;5006516;28;20437;-65
2023/11/21 08:28:16;;;;;;;3.40;1.50;;;9.40;87.90;;;;;;5006183;28;20037;-64
2023/11/21 08:30:42;;;;;;;6.70;1.58;;;9.40;87.90;;;;;;5005333;28;20076;-65
2023/11/21 08:33:08;;;;;;;2.72;1.27;;;9.40;87.90;;;;;;5006563;28;20026;-64
2023/11/21 08:35:34;;;;;;;5.88;1.50;;;9.40;88.00;;;;;;5005624;28;20582;-64
2023/11/21 08:38:00;;;;;;;2.05;1.10;;;9.40;88.00;;;;;;5005089;28;20127;-64
2023/11/21 08:40:26;;;;;;;2.22;1.05;;;9.50;88.00;;;;;;5005585;28;20131;-63
2023/11/21 08:42:52;;;;;;;2.85;1.10;;;9.50;88.10;;;;;;5006028;28;20045;-64
2023/11/21 08:45:18;;;;;;;3.28;1.23;;;9.50;88.10;;;;;;5006460;28;20037;-64
2023/11/21 08:47:44;;;;;;;2.33;1.10;;;9.60;88.30;;;;;;5005604;28;20046;-63
2023/11/21 08:50:11;;;;;;;2.15;0.98;;;9.60;88.40;;;;;;5006067;28;20036;-64
2023/11/21 08:52:38;;;;;;;3.03;1.20;;;9.60;88.40;;;;;;5005142;28;20030;-64
2023/11/21 08:55:07;;;;;;;1.30;0.90;;;9.70;88.50;;;;;;5006337;28;20041;-64
2023/11/21 08:57:37;;;;;;;3.17;1.00;;;9.70;88.50;;;;;;5005590;28;20026;-64
2023/11/21 09:00:08;;;;;;;3.58;1.40;;;9.80;88.50;;;;;;5005872;28;20390;-65
2023/11/21 09:02:36;;;;;;;3.20;1.40;;;9.80;88.50;;;;;;5003616;28;20150;-64
2023/11/21 09:05:03;;;;;;;1.65;1.05;;;9.80;88.50;;;;;;5006833;28;20041;-64
2023/11/21 09:07:29;;;;;;;3.70;1.63;;;9.90;88.60;;;;;;5006743;28;20042;-64
2023/11/21 09:09:54;;;;;;;3.22;1.55;;;9.90;88.40;;;;;;5010941;28;20045;-64
2023/11/21 09:12:20;;;;;;;2.33;1.40;;;9.90;88.10;;;;;;5010528;28;20042;-64
2023/11/21 09:14:46;;;;;;;2.42;1.27;;;10.00;88.10;;;;;;5010769;28;20037;-64
2023/11/21 09:17:12;;;;;;;1.90;1.38;;;10.00;88.10;;;;;;5002014;28;20069;-64
2023/11/21 09:19:38;;;;;;;2.55;1.27;;;10.00;87.90;;;;;;5010143;28;20355;-64
2023/11/21 09:22:05;;;;;;;2.33;1.20;;;10.10;87.80;;;;;;5011281;28;20034;-64
2023/11/21 09:24:31;;;;;;;3.75;1.40;;;10.10;87.70;;;;;;5010261;28;20037;-64
2023/11/21 09:26:57;;;;;;;3.50;1.25;;;10.10;87.60;;;;;;5010548;28;20414;-63
2023/11/21 09:29:22;;;;;;;1.90;1.30;;;10.10;87.60;;;;;;5010426;28;20088;-64
2023/11/21 09:31:51;;;;;;;4.03;1.58;;;10.10;87.40;;;;;;4993475;28;20080;-64
2023/11/21 09:34:16;;;;;;;2.53;1.50;;;10.10;86.80;;;;;;5010696;28;20038;-64
2023/11/21 09:36:45;;;;;;;3.20;1.60;;;10.10;86.90;;;;;;5009646;28;20088;-63
2023/11/21 09:39:10;;;;;;;3.33;1.77;;;10.10;87.40;;;;;;5009165;28;20038;-64
2023/11/21 09:41:57;;;;;;;1.70;1.60;;;10.10;87.40;;;;;;5010670;28;20034;-64
2023/11/21 09:44:50;;;;;;;1.92;1.30;;;10.10;87.40;;;;;;5010124;28;20556;-64
2023/11/21 09:47:17;;;;;;;2.55;1.70;;;10.10;87.50;;;;;;5009913;28;20038;-64
2023/11/21 09:49:47;;;;;;;2.10;1.45;;;10.20;87.40;;;;;;5009972;28;20059;-64
2023/11/21 09:52:25;;;;;;;2.92;1.90;;;10.20;87.40;;;;;;5010357;28;20063;-64
2023/11/21 09:54:52;;;;;;;3.30;1.60;;;10.20;87.20;;;;;;5010067;28;20053;-64
2023/11/21 09:57:21;;;;;;;2.05;1.70;;;10.30;87.20;;;;;;5009954;28;20491;-64
2023/11/21 09:59:50;;;;;;;2.53;1.60;;;10.30;87.40;;;;;;5010325;28;20049;-64
2023/11/21 10:02:18;;;;;;;2.20;1.50;;;10.30;87.70;;;;;;5010557;28;20049;-64
2023/11/21 10:04:45;;;;;;;2.75;1.52;;;10.40;87.70;;;;;;5009875;28;20061;-64
2023/11/21 10:07:15;;;;;;;2.00;1.80;;;10.40;87.70;;;;;;5009844;28;20046;-63
2023/11/21 10:09:41;;;;;;;3.30;1.63;;;10.50;87.80;;;;;;5009244;28;20057;-64
2023/11/21 10:12:08;;;;;;;2.60;1.50;;;10.60;87.60;;;;;;5010050;28;20054;-64
2023/11/21 10:14:41;;;;;;;2.10;1.50;;;10.60;87.40;;;;;;5009197;28;20394;-64
2023/11/21 10:17:08;;;;;;;3.60;1.83;;;10.70;87.30;;;;;;5010131;28;20038;-64
2023/11/21 10:19:38;;;;;;;2.40;1.60;;;10.70;86.90;;;;;;5000222;28;20278;-64
2023/11/21 10:22:06;;;;;;;1.80;1.52;;;10.80;86.70;;;;;;5009593;28;20038;-64
2023/11/21 10:24:32;;;;;;;5.93;1.60;;;10.90;86.80;;;;;;5009150;28;20038;-64
2023/11/21 10:26:58;;;;;;;4.63;2.05;;;10.90;86.80;;;;;;5009937;28;20048;-64
2023/11/21 10:29:24;;;;;;;3.65;1.30;;;11.00;86.60;;;;;;5009446;28;20042;-64
2023/11/21 10:31:51;;;;;;;2.05;1.20;;;11.00;86.60;;;;;;5009637;28;20030;-64
2023/11/21 10:34:18;;;;;;;1.55;1.40;;;11.10;86.30;;;;;;5009688;28;20069;-64
2023/11/21 10:36:44;;;;;;;4.68;1.70;;;11.10;86.10;;;;;;5008162;28;20805;-64
2023/11/21 10:39:17;;;;;;;1.60;1.50;;;11.20;86.00;;;;;;5007922;28;20536;-63
2023/11/21 10:41:45;;;;;;;1.30;0.98;;;11.20;85.80;;;;;;5009741;28;20181;-64
2023/11/21 10:44:11;;;;;;;1.30;1.00;;;11.20;85.50;;;;;;4992171;28;20030;-64
2023/11/21 10:46:37;;;;;;;1.77;1.30;;;11.20;84.60;;;;;;5008676;28;20049;-64
2023/11/21 10:49:04;;;;;;;2.38;1.25;;;11.20;84.10;;;;;;5008777;28;20034;-64
2023/11/21 10:51:29;;;;;;;3.75;1.77;;;11.30;84.30;;;;;;5008971;28;20093;-64
2023/11/21 10:53:56;;;;;;;1.60;1.50;;;11.30;84.40;;;;;;5009465;28;20449;-64
2023/11/21 10:56:23;;;;;;;2.13;1.50;;;11.30;84.30;;;;;;5008943;28;20045;-64
2023/11/21 10:58:51;;;;;;;3.33;1.38;;;11.30;83.70;;;;;;5008432;28;20045;-64
2023/11/21 11:01:18;;;;;;;1.58;1.48;;;11.30;84.00;;;;;;5009408;28;20422;-64
2023/11/21 11:03:44;;;;;;;1.70;1.30;;;11.30;83.80;;;;;;5008423;28;20042;-64
2023/11/21 11:06:11;;;;;;;2.38;1.52;;;11.40;83.90;;;;;;5009427;28;20428;-64
2023/11/21 11:08:38;;;;;;;1.90;1.20;;;11.40;84.00;;;;;;5007698;28;20030;-64
2023/11/21 11:11:06;;;;;;;1.45;1.30;;;11.50;84.20;;;;;;5007773;28;20034;-64
2023/11/21 11:13:31;;;;;;;1.38;1.13;;;11.50;84.00;;;;;;5008762;28;20033;-63
2023/11/21 11:16:06;;;;;;;2.53;1.20;;;11.50;83.80;;;;;;5009519;28;20042;-64
2023/11/21 11:18:33;;;;;;;1.20;0.80;;;11.60;83.50;;;;;;5008038;28;20125;-64
2023/11/21 11:21:13;;;;;;;2.28;1.42;;;11.60;83.50;;;;;;5008688;28;20041;-64
2023/11/21 11:24:16;;;;;;;1.77;1.10;;;11.70;83.30;;;;;;5008592;28;20042;-64
2023/11/21 11:26:48;;;;;;;3.35;0.93;;;11.70;82.90;;;;;;5007560;28;20030;-64
2023/11/21 11:29:40;;;;;;;2.45;1.08;;;11.80;82.70;;;;;;5008299;28;20026;-64
2023/11/21 11:32:27;;;;;;;1.67;1.10;;;11.80;82.70;;;;;;5003008;28;20022;-64
2023/11/21 11:35:19;;;;;;;2.42;1.23;;;11.80;81.90;;;;;;5007495;28;20026;-64
2023/11/21 11:37:44;;;;;;;3.10;1.10;;;11.80;81.80;;;;;;5006796;28;20041;-64
2023/11/21 11:40:15;;;;;;;2.08;1.13;;;11.80;82.20;;;;;;5008481;28;20041;-64
2023/11/21 11:42:59;;;;;;;1.98;1.20;;;11.90;82.10;;;;;;5007495;28;20034;-64
2023/11/21 11:45:32;;;;;;;1.33;1.02;;;11.90;82.00;;;;;;5007639;28;20069;-64
2023/11/21 11:47:57;;;;;;;3.30;1.20;;;11.90;82.20;;;;;;5008095;28;20543;-63
2023/11/21 11:50:24;;;;;;;1.38;1.00;;;11.90;82.20;;;;;;5008208;28;20057;-64
2023/11/21 11:52:53;;;;;;;1.25;0.82;;;12.00;82.00;;;;;;5008282;28;20061;-64
2023/11/21 11:55:20;;;;;;;1.75;0.90;;;11.90;81.80;;;;;;5007717;28;20266;-64
2023/11/21 11:57:50;;;;;;;1.23;0.70;;;11.90;81.30;;;;;;5007941;28;20469;-64
2023/11/21 12:00:20;;;;;;;1.33;0.50;;;12.00;81.00;;;;;;5007692;28;20042;-64
2023/11/21 12:02:51;;;;;;;0.68;0.60;;;11.90;80.50;;;;;;5007618;28;20073;-64
2023/11/21 12:05:19;;;;;;;1.27;0.55;;;11.90;80.00;;;;;;5008061;28;20042;-64
2023/11/21 12:07:53;;;;;;;0.93;0.80;;;11.90;80.30;;;;;;5007568;28;20108;-64
2023/11/21 12:10:22;;;;;;;0.60;0.60;;;11.90;80.10;;;;;;5007332;28;20052;-64
2023/11/21 12:12:49;;;;;;;0.70;0.52;;;11.90;80.50;;;;;;5007259;28;20109;-64
2023/11/21 12:15:15;;;;;;;1.55;0.80;;;11.90;80.60;;;;;;5008249;28;20038;-63
2023/11/21 12:17:45;;;;;;;0.95;0.50;;;11.90;80.50;;;;;;5007484;28;20042;-64
2023/11/21 12:20:15;;;;;;;1.05;0.60;;;11.90;80.30;;;;;;5007916;28;20440;-64
2023/11/21 12:22:48;;;;;;;1.63;0.65;;;11.90;80.50;;;;;;5006712;28;20034;-64
2023/11/21 12:25:22;;;;;;;1.38;0.70;;;11.90;80.10;;;;;;5007626;28;20030;-64
2023/11/21 12:27:50;;;;;;;0.60;0.47;;;11.90;80.50;;;;;;5007534;28;20144;-64
2023/11/21 12:30:17;;;;;;;1.00;0.70;;;11.90;80.80;;;;;;5007985;28;20065;-64
2023/11/21 12:32:45;;;;;;;0.60;0.60;;;11.90;80.80;;;;;;5006485;28;21030;-64
2023/11/21 12:35:12;;;;;;;0.30;0.30;;;11.90;80.20;;;;;;5007364;28;20045;-64
2023/11/21 12:37:39;;;;;;;1.80;0.40;;;11.90;79.80;;;;;;5005469;28;20034;-64
2023/11/21 12:40:11;;;;;;;0.80;0.50;;;11.90;79.80;;;;;;5007151;28;20042;-63
2023/11/21 12:42:51;;;;;;;0.63;0.52;;;11.80;79.60;;;;;;5006009;28;20034;-64
2023/11/21 12:45:17;;;;;;;0.50;0.50;;;11.80;80.00;;;;;;5007332;28;20089;-64
2023/11/21 12:47:48;;;;;;;0.75;0.55;;;11.80;80.00;;;;;;5006930;28;20034;-64
2023/11/21 12:50:14;;;;;;;0.90;0.40;;;11.80;79.80;;;;;;5007183;28;20045;-64
2023/11/21 12:52:47;;;;;;;0.52;0.13;;;11.70;79.80;;;;;;5006756;28;20042;-64
2023/11/21 12:55:22;;;;;;;0.40;0.10;;;11.70;79.00;;;;;;5007373;28;20038;-64
2023/11/21 12:57:57;;;;;;;0.10;0.10;;;11.70;78.20;;;;;;5007354;28;20722;-64